Time;durP1;ratioP1;P1;durP2;ratioP2;P2;SDS_P1;SDS_P2;PMS_P1;PMS_P2;Temp;Humidity;BMP_temperature;BMP_pressure;BME280_temperature;BME280_humidity;BME280_pressure;Samples;Min_cycle;Max_cycle;Signal;HPM_P1;HPM_P2
2023/08/14 00:01:20;;;;;;;9.63;2.88;;;19.50;99.90;;;;;;5091268;28;20283;-57
2023/08/14 00:03:47;;;;;;;7.28;2.55;;;19.50;99.90;;;;;;5090557;28;20718;-57
2023/08/14 00:06:17;;;;;;;6.57;2.17;;;19.50;99.90;;;;;;5107516;28;20199;-58
2023/08/14 00:08:45;;;;;;;6.82;2.75;;;19.60;99.90;;;;;;5090336;28;20328;-56
2023/08/14 00:11:13;;;;;;;9.23;2.78;;;19.60;99.90;;;;;;5101294;28;20252;-58
2023/08/14 00:13:51;;;;;;;6.28;2.45;;;19.60;99.90;;;;;;5097344;28;20219;-55
2023/08/14 00:16:19;;;;;;;9.52;2.15;;;19.60;99.90;;;;;;5093714;28;20287;-56
2023/08/14 00:18:46;;;;;;;6.80;2.38;;;19.60;99.90;;;;;;5094932;28;20278;-55
2023/08/14 00:21:15;;;;;;;10.40;2.58;;;19.60;99.90;;;;;;5093873;28;20211;-58
2023/08/14 00:23:45;;;;;;;5.40;2.15;;;19.60;99.90;;;;;;5096765;28;20219;-56
2023/08/14 00:26:12;;;;;;;4.88;2.00;;;19.60;99.90;;;;;;5093656;28;20204;-58
2023/08/14 00:28:40;;;;;;;7.15;2.55;;;19.60;99.90;;;;;;5086358;28;20196;-58
2023/08/14 00:31:08;;;;;;;5.70;2.70;;;19.60;99.90;;;;;;5096715;28;20228;-58
2023/08/14 00:33:36;;;;;;;4.85;2.40;;;19.60;99.90;;;;;;5104336;28;20269;-58
2023/08/14 00:36:06;;;;;;;7.13;2.95;;;19.60;99.90;;;;;;5106518;28;20257;-59
2023/08/14 00:38:34;;;;;;;4.38;2.13;;;19.60;99.90;;;;;;5107474;28;20196;-55
2023/08/14 00:41:03;;;;;;;7.65;2.30;;;19.60;99.90;;;;;;5105395;28;20269;-55
2023/08/14 00:43:31;;;;;;;7.20;2.78;;;19.60;99.90;;;;;;5093830;28;20718;-55
2023/08/14 00:45:59;;;;;;;9.27;2.70;;;19.60;99.90;;;;;;5094481;28;20208;-58
2023/08/14 00:48:26;;;;;;;5.55;2.53;;;19.60;99.90;;;;;;5098422;28;20287;-60
2023/08/14 00:50:54;;;;;;;12.18;3.40;;;19.60;99.90;;;;;;5104210;28;20195;-60
2023/08/14 00:53:23;;;;;;;15.85;2.70;;;19.50;99.90;;;;;;5097609;28;20905;-55
2023/08/14 00:55:51;;;;;;;8.82;2.50;;;19.50;99.90;;;;;;5108833;28;20701;-62
2023/08/14 00:58:20;;;;;;;12.90;2.60;;;19.50;99.90;;;;;;5096105;28;20290;-57
2023/08/14 01:00:48;;;;;;;13.63;3.17;;;19.50;99.90;;;;;;5097311;28;20735;-58
2023/08/14 01:03:16;;;;;;;7.72;2.63;;;19.50;99.90;;;;;;5090047;28;20251;-57
2023/08/14 01:05:44;;;;;;;6.50;3.08;;;19.50;99.90;;;;;;5108224;28;20399;-57
2023/08/14 01:08:12;;;;;;;13.30;3.10;;;19.50;99.90;;;;;;5100190;28;20236;-59
2023/08/14 01:10:45;;;;;;;5.60;2.53;;;19.50;99.90;;;;;;5090832;28;20962;-57
2023/08/14 01:13:19;;;;;;;5.95;2.88;;;19.50;99.90;;;;;;5104436;28;20235;-56
2023/08/14 01:15:50;;;;;;;7.93;2.55;;;19.40;99.90;;;;;;5097399;28;20207;-56
2023/08/14 01:18:18;;;;;;;10.00;3.00;;;19.40;99.90;;;;;;5096528;28;20223;-56
2023/08/14 01:20:57;;;;;;;6.68;2.75;;;19.40;99.90;;;;;;5105776;28;20224;-58
2023/08/14 01:23:29;;;;;;;6.00;2.63;;;19.40;99.90;;;;;;5093231;28;20705;-56
2023/08/14 01:25:59;;;;;;;6.63;2.92;;;19.40;99.90;;;;;;5095723;28;20254;-57
2023/08/14 01:28:26;;;;;;;9.32;2.85;;;19.40;99.90;;;;;;5097664;28;20234;-55
2023/08/14 01:30:55;;;;;;;4.35;2.53;;;19.30;99.90;;;;;;5100846;28;20685;-63
2023/08/14 01:33:23;;;;;;;5.75;2.72;;;19.30;99.90;;;;;;5095226;28;20249;-55
2023/08/14 01:35:52;;;;;;;9.93;2.80;;;19.30;99.90;;;;;;5095186;28;20228;-57
2023/08/14 01:38:21;;;;;;;4.32;2.85;;;19.20;99.90;;;;;;5098961;28;20226;-57
2023/08/14 01:40:51;;;;;;;10.80;2.95;;;19.20;99.90;;;;;;5102638;28;20725;-57
2023/08/14 01:43:23;;;;;;;8.93;2.65;;;19.10;99.90;;;;;;5097880;28;20216;-56
2023/08/14 01:45:52;;;;;;;7.45;2.58;;;19.10;99.90;;;;;;5094183;28;20196;-57
2023/08/14 01:48:20;;;;;;;8.48;2.40;;;19.10;99.90;;;;;;5093298;28;20199;-56
2023/08/14 01:50:47;;;;;;;11.52;2.80;;;19.10;99.90;;;;;;5092874;28;20261;-56
2023/08/14 01:53:16;;;;;;;3.50;2.67;;;19.00;99.90;;;;;;5104018;28;20195;-58
2023/08/14 01:55:44;;;;;;;11.55;2.78;;;19.00;99.90;;;;;;5097970;28;20199;-56
2023/08/14 01:58:12;;;;;;;10.30;3.00;;;19.00;99.90;;;;;;5109446;28;20231;-56
2023/08/14 02:00:41;;;;;;;10.65;2.95;;;19.00;99.90;;;;;;5091947;28;20208;-59
2023/08/14 02:03:09;;;;;;;6.30;2.60;;;18.90;99.90;;;;;;5090951;28;20308;-58
2023/08/14 02:05:37;;;;;;;10.55;3.10;;;18.90;99.90;;;;;;5094289;28;20220;-57
2023/08/14 02:08:06;;;;;;;7.93;2.40;;;18.90;99.90;;;;;;5092777;28;20619;-57
2023/08/14 02:10:34;;;;;;;10.23;2.90;;;18.90;99.90;;;;;;5095295;28;20204;-58
2023/08/14 02:13:02;;;;;;;5.65;2.65;;;18.90;99.90;;;;;;5092548;28;20275;-56
2023/08/14 02:15:29;;;;;;;9.95;2.70;;;18.80;99.90;;;;;;5091543;28;20227;-57
2023/08/14 02:17:59;;;;;;;13.13;3.22;;;18.80;99.90;;;;;;5094672;28;20283;-57
2023/08/14 02:20:27;;;;;;;6.18;3.05;;;18.80;99.90;;;;;;5090289;28;20215;-56
2023/08/14 02:22:55;;;;;;;9.35;2.85;;;18.80;99.90;;;;;;5091772;28;20256;-56
2023/08/14 02:25:23;;;;;;;8.32;3.03;;;18.80;99.90;;;;;;5091715;28;20787;-55
2023/08/14 02:27:50;;;;;;;8.88;2.88;;;18.80;99.90;;;;;;5094015;28;20238;-56
2023/08/14 02:30:19;;;;;;;7.72;3.00;;;18.80;99.90;;;;;;5096447;28;20631;-58
2023/08/14 02:32:46;;;;;;;11.20;2.38;;;18.80;99.90;;;;;;5091900;28;20232;-56
2023/08/14 02:35:16;;;;;;;7.93;2.60;;;18.80;99.90;;;;;;5099731;28;20223;-57
2023/08/14 02:37:44;;;;;;;5.07;3.15;;;18.80;99.90;;;;;;5094409;28;20268;-59
2023/08/14 02:40:12;;;;;;;10.43;2.80;;;18.80;99.90;;;;;;5101360;28;20231;-56
2023/08/14 02:42:40;;;;;;;8.65;3.47;;;18.80;99.90;;;;;;5093122;28;20204;-58
2023/08/14 02:45:09;;;;;;;8.35;3.22;;;18.80;99.90;;;;;;5092937;28;20267;-61
2023/08/14 02:47:37;;;;;;;9.70;2.88;;;18.80;99.90;;;;;;5091708;28;20284;-56
2023/08/14 02:50:06;;;;;;;6.68;2.88;;;18.80;99.90;;;;;;5092880;28;20261;-57
2023/08/14 02:52:35;;;;;;;9.48;3.50;;;18.80;99.90;;;;;;5092327;28;20200;-56
2023/08/14 02:55:04;;;;;;;8.13;3.17;;;18.80;99.90;;;;;;5092485;28;20418;-58
2023/08/14 02:57:31;;;;;;;10.05;2.75;;;18.90;99.90;;;;;;5093165;28;20240;-57
2023/08/14 02:59:59;;;;;;;6.22;2.97;;;18.90;99.90;;;;;;5091842;28;20271;-55
2023/08/14 03:02:27;;;;;;;17.23;3.13;;;18.80;99.90;;;;;;5090626;28;20204;-56
2023/08/14 03:04:56;;;;;;;6.97;2.80;;;18.80;99.90;;;;;;5099356;28;20219;-56
2023/08/14 03:07:23;;;;;;;4.20;2.90;;;18.90;99.90;;;;;;5101235;28;20204;-56
2023/08/14 03:09:53;;;;;;;8.13;3.20;;;18.90;99.90;;;;;;5091242;28;20255;-57
2023/08/14 03:12:21;;;;;;;13.23;3.28;;;18.80;99.90;;;;;;5093610;28;20275;-56
2023/08/14 03:14:48;;;;;;;9.95;2.97;;;18.80;99.90;;;;;;5090772;28;20469;-58
2023/08/14 03:17:17;;;;;;;11.80;3.13;;;18.80;99.90;;;;;;5092316;28;20627;-56
2023/08/14 03:19:44;;;;;;;10.85;2.97;;;18.80;99.90;;;;;;5091338;28;20231;-58
2023/08/14 03:22:12;;;;;;;8.77;2.72;;;18.80;99.90;;;;;;5093064;28;20553;-58
2023/08/14 03:24:40;;;;;;;4.88;2.67;;;18.80;99.90;;;;;;5102695;28;20280;-56
2023/08/14 03:27:09;;;;;;;3.58;2.50;;;18.80;99.90;;;;;;5091331;28;20684;-56
2023/08/14 03:29:37;;;;;;;6.78;3.13;;;18.80;99.90;;;;;;5091688;28;20232;-59
2023/08/14 03:32:06;;;;;;;6.38;2.88;;;18.80;99.90;;;;;;5094253;28;20871;-56
2023/08/14 03:34:35;;;;;;;8.25;2.83;;;18.80;99.90;;;;;;5096568;28;20222;-56
2023/08/14 03:37:02;;;;;;;8.88;2.92;;;18.80;99.90;;;;;;5102354;28;20283;-57
2023/08/14 03:39:30;;;;;;;11.95;3.45;;;18.80;99.90;;;;;;5094884;28;20200;-56
2023/08/14 03:41:58;;;;;;;10.55;3.20;;;18.80;99.90;;;;;;5094001;28;20239;-58
2023/08/14 03:44:27;;;;;;;6.00;3.20;;;18.80;99.90;;;;;;5119186;22;20309;-61
2023/08/14 03:46:55;;;;;;;10.88;3.70;;;18.80;99.90;;;;;;5091619;28;20276;-60
2023/08/14 03:49:23;;;;;;;4.60;2.92;;;18.80;99.90;;;;;;5097235;28;20208;-60
2023/08/14 03:51:51;;;;;;;5.15;3.17;;;18.80;99.90;;;;;;5105112;28;20200;-60
2023/08/14 03:54:19;;;;;;;8.05;3.00;;;18.90;99.90;;;;;;5095269;28;20330;-60
2023/08/14 03:56:47;;;;;;;3.40;3.10;;;18.90;99.90;;;;;;5078394;28;20283;-60
2023/08/14 03:59:15;;;;;;;6.30;3.17;;;18.90;99.90;;;;;;5075917;28;20240;-61
2023/08/14 04:01:44;;;;;;;7.65;3.38;;;18.90;99.90;;;;;;5071198;28;20236;-61
2023/08/14 04:04:12;;;;;;;6.50;3.35;;;18.90;99.90;;;;;;5075808;28;20219;-61
2023/08/14 04:06:42;;;;;;;5.28;3.22;;;19.00;99.90;;;;;;5083181;28;20200;-60
2023/08/14 04:09:10;;;;;;;5.45;3.13;;;19.00;99.90;;;;;;5086866;28;20204;-61
2023/08/14 04:11:38;;;;;;;6.75;3.53;;;19.00;99.90;;;;;;5082714;28;20228;-60
2023/08/14 04:14:06;;;;;;;5.80;2.70;;;19.00;99.90;;;;;;5078414;28;20648;-61
2023/08/14 04:16:43;;;;;;;5.95;3.28;;;19.00;99.90;;;;;;5089345;28;20755;-60
2023/08/14 04:19:14;;;;;;;4.18;2.92;;;19.00;99.90;;;;;;5083341;28;20664;-61
2023/08/14 04:21:42;;;;;;;5.85;2.65;;;19.00;99.90;;;;;;5065483;28;20578;-61
2023/08/14 04:24:10;;;;;;;7.18;3.08;;;19.00;99.90;;;;;;5081797;28;20228;-61
2023/08/14 04:26:38;;;;;;;8.45;2.92;;;19.00;99.90;;;;;;5079965;28;20200;-61
2023/08/14 04:29:07;;;;;;;7.38;3.55;;;19.00;99.90;;;;;;5084836;28;20678;-61
2023/08/14 04:31:35;;;;;;;5.57;3.22;;;19.00;99.90;;;;;;5067239;28;20236;-60
2023/08/14 04:34:03;;;;;;;8.57;3.05;;;19.00;99.90;;;;;;5081849;28;20232;-61
2023/08/14 04:36:32;;;;;;;6.10;3.33;;;19.00;99.90;;;;;;5093262;28;20537;-61
2023/08/14 04:39:00;;;;;;;8.82;3.00;;;19.00;99.90;;;;;;5085725;28;20224;-61
2023/08/14 04:41:28;;;;;;;8.55;3.42;;;19.00;99.90;;;;;;5077786;28;20209;-61
2023/08/14 04:43:56;;;;;;;9.10;3.17;;;19.00;99.90;;;;;;5067764;28;20747;-61
2023/08/14 04:46:30;;;;;;;4.20;2.80;;;19.00;99.90;;;;;;5071063;28;20222;-61
2023/08/14 04:49:12;;;;;;;7.70;2.80;;;19.00;99.90;;;;;;5076246;28;20261;-62
2023/08/14 04:51:41;;;;;;;6.43;2.83;;;19.10;99.90;;;;;;5080772;28;20204;-63
2023/08/14 04:54:09;;;;;;;8.30;3.40;;;19.10;99.90;;;;;;5083506;28;20243;-63
2023/08/14 04:56:37;;;;;;;6.30;3.33;;;19.10;99.90;;;;;;5082314;28;20233;-63
2023/08/14 04:59:05;;;;;;;8.75;2.90;;;19.10;99.90;;;;;;5084195;28;20315;-63
2023/08/14 05:01:32;;;;;;;5.88;3.30;;;19.10;99.90;;;;;;5073206;28;20320;-61
2023/08/14 05:04:00;;;;;;;6.30;3.47;;;19.10;99.90;;;;;;5080120;28;20726;-61
2023/08/14 05:06:28;;;;;;;3.83;3.22;;;19.20;99.90;;;;;;5083019;28;20752;-60
2023/08/14 05:08:57;;;;;;;6.75;3.50;;;19.20;99.90;;;;;;5082133;28;20247;-62
2023/08/14 05:11:28;;;;;;;3.53;2.85;;;19.20;99.90;;;;;;5081117;28;20197;-61
2023/08/14 05:13:56;;;;;;;3.45;3.17;;;19.20;99.90;;;;;;5090054;28;20204;-62
2023/08/14 05:16:25;;;;;;;18.67;4.20;;;19.20;99.90;;;;;;5060547;28;20602;-62
2023/08/14 05:18:52;;;;;;;12.63;3.92;;;19.30;99.90;;;;;;5086278;28;20201;-62
2023/08/14 05:21:20;;;;;;;9.55;3.95;;;19.40;99.90;;;;;;5085177;28;20204;-62
2023/08/14 05:23:48;;;;;;;9.27;3.33;;;19.50;99.90;;;;;;5078037;28;20224;-62
2023/08/14 05:26:17;;;;;;;12.55;3.60;;;19.60;99.90;;;;;;5088418;28;20259;-62
2023/08/14 05:28:45;;;;;;;7.03;3.15;;;19.70;99.90;;;;;;5073136;28;20266;-62
2023/08/14 05:31:13;;;;;;;8.18;3.08;;;19.90;99.90;;;;;;5073383;28;20216;-64
2023/08/14 05:33:41;;;;;;;7.70;3.40;;;20.00;99.90;;;;;;5072104;28;20197;-64
2023/08/14 05:36:09;;;;;;;8.38;3.22;;;20.10;99.90;;;;;;5073380;28;20200;-65
2023/08/14 05:38:37;;;;;;;7.13;3.05;;;20.20;99.90;;;;;;5078846;28;20608;-65
2023/08/14 05:41:05;;;;;;;10.23;3.00;;;20.20;99.90;;;;;;5083054;28;20231;-65
2023/08/14 05:43:34;;;;;;;8.30;3.22;;;20.30;99.90;;;;;;5074755;28;20240;-65
2023/08/14 05:46:02;;;;;;;10.18;3.33;;;20.30;99.90;;;;;;5074728;28;20311;-64
2023/08/14 05:48:30;;;;;;;7.10;2.95;;;20.50;99.90;;;;;;5077729;28;20207;-65
2023/08/14 05:50:58;;;;;;;7.53;3.50;;;20.50;99.90;;;;;;5074974;28;20251;-65
2023/08/14 05:53:26;;;;;;;6.45;3.33;;;20.60;99.90;;;;;;5074372;28;20727;-65
2023/08/14 05:55:54;;;;;;;8.20;3.38;;;20.70;99.90;;;;;;5073611;28;20248;-65
2023/08/14 05:58:22;;;;;;;5.47;2.95;;;20.70;99.90;;;;;;5069101;28;20232;-65
2023/08/14 06:00:51;;;;;;;9.02;3.30;;;20.70;99.90;;;;;;5072270;28;20308;-65
2023/08/14 06:03:19;;;;;;;7.93;3.13;;;20.70;99.90;;;;;;5072777;28;20285;-64
2023/08/14 06:06:07;;;;;;;5.93;3.50;;;20.70;99.90;;;;;;5090272;28;20216;-65
2023/08/14 06:08:35;;;;;;;4.32;2.95;;;20.60;99.90;;;;;;5087212;28;20284;-65
2023/08/14 06:11:03;;;;;;;8.75;2.85;;;20.60;99.90;;;;;;5071666;28;20284;-65
2023/08/14 06:13:32;;;;;;;8.27;3.30;;;20.60;99.90;;;;;;5085318;28;20698;-65
2023/08/14 06:16:02;;;;;;;6.15;2.90;;;20.70;99.90;;;;;;5075656;28;20221;-64
2023/08/14 06:18:30;;;;;;;3.50;2.88;;;20.70;99.90;;;;;;5087982;28;20251;-65
2023/08/14 06:20:58;;;;;;;3.45;2.70;;;20.80;99.90;;;;;;5081038;28;20220;-65
2023/08/14 06:23:26;;;;;;;6.13;2.95;;;20.90;99.90;;;;;;5080069;28;20575;-65
2023/08/14 06:25:54;;;;;;;5.05;2.83;;;20.90;99.90;;;;;;5088330;28;20227;-64
2023/08/14 06:28:22;;;;;;;7.03;3.00;;;20.90;99.90;;;;;;5088925;28;20205;-63
2023/08/14 06:30:50;;;;;;;5.97;3.25;;;20.90;99.90;;;;;;5072279;28;20254;-63
2023/08/14 06:33:19;;;;;;;4.35;3.33;;;20.90;99.90;;;;;;5075011;28;20233;-64
2023/08/14 06:35:47;;;;;;;7.13;2.75;;;20.80;99.90;;;;;;5073866;28;20275;-64
2023/08/14 06:38:15;;;;;;;5.82;3.05;;;20.70;99.90;;;;;;5073896;28;20203;-65
2023/08/14 06:40:43;;;;;;;5.63;3.38;;;20.70;99.90;;;;;;5078517;28;20195;-65
2023/08/14 06:43:10;;;;;;;6.85;3.05;;;20.70;99.90;;;;;;5080921;28;20232;-65
2023/08/14 06:45:38;;;;;;;5.65;3.00;;;20.70;99.90;;;;;;5085614;28;20697;-65
2023/08/14 06:48:07;;;;;;;10.88;3.17;;;20.70;99.90;;;;;;5075012;28;20355;-65
2023/08/14 06:50:36;;;;;;;12.82;3.40;;;20.70;99.90;;;;;;5086869;28;20197;-65
2023/08/14 06:53:04;;;;;;;6.63;3.33;;;20.70;99.90;;;;;;5081166;28;20277;-65
2023/08/14 06:55:32;;;;;;;9.43;3.70;;;20.70;99.90;;;;;;5078435;28;20221;-65
2023/08/14 06:58:00;;;;;;;7.38;3.20;;;20.80;99.90;;;;;;5070263;28;20279;-61
2023/08/14 07:00:28;;;;;;;7.80;3.75;;;20.80;99.90;;;;;;5071470;28;20290;-58
2023/08/14 07:02:56;;;;;;;3.72;2.85;;;20.90;99.90;;;;;;5079978;28;20257;-58
2023/08/14 07:05:24;;;;;;;11.43;3.53;;;20.90;99.90;;;;;;5082895;28;20306;-58
2023/08/14 07:07:54;;;;;;;8.18;2.90;;;21.00;99.90;;;;;;5073596;28;20276;-59
2023/08/14 07:10:22;;;;;;;9.30;3.28;;;20.90;99.90;;;;;;5075078;28;20219;-58
2023/08/14 07:12:49;;;;;;;13.43;3.22;;;20.90;99.90;;;;;;5083714;28;20280;-57
2023/08/14 07:15:17;;;;;;;7.60;2.97;;;20.90;99.90;;;;;;5082172;28;20270;-57
2023/08/14 07:17:45;;;;;;;4.38;3.20;;;21.00;99.90;;;;;;5075392;28;20207;-58
2023/08/14 07:20:13;;;;;;;7.32;3.13;;;21.10;99.90;;;;;;5087929;28;20204;-63
2023/08/14 07:22:42;;;;;;;7.28;3.30;;;21.10;99.90;;;;;;5077173;28;20246;-63
2023/08/14 07:25:13;;;;;;;10.48;3.35;;;21.20;99.90;;;;;;5080950;28;20256;-62
2023/08/14 07:27:41;;;;;;;4.82;2.90;;;21.40;99.90;;;;;;5085791;28;20231;-63
2023/08/14 07:30:10;;;;;;;7.68;2.58;;;21.50;99.90;;;;;;5074947;28;20296;-63
2023/08/14 07:32:40;;;;;;;6.18;3.35;;;21.60;99.90;;;;;;5085275;28;20751;-62
2023/08/14 07:35:08;;;;;;;6.32;2.72;;;21.80;99.90;;;;;;5081017;28;20246;-63
2023/08/14 07:37:36;;;;;;;6.20;2.92;;;22.00;99.90;;;;;;5077551;28;20649;-63
2023/08/14 07:40:06;;;;;;;5.50;2.20;;;22.10;99.90;;;;;;5087540;28;20257;-64
2023/08/14 07:42:35;;;;;;;6.22;2.67;;;22.10;99.90;;;;;;5076485;28;20204;-63
2023/08/14 07:45:04;;;;;;;4.15;2.60;;;22.10;99.90;;;;;;5081712;28;20294;-63
2023/08/14 07:47:32;;;;;;;5.57;2.58;;;22.20;99.90;;;;;;5084265;28;20307;-63
2023/08/14 07:49:59;;;;;;;4.32;2.45;;;22.20;99.90;;;;;;5073615;28;20289;-63
2023/08/14 07:52:28;;;;;;;3.83;2.65;;;22.20;99.90;;;;;;5086707;28;20576;-64
2023/08/14 07:54:56;;;;;;;7.68;2.55;;;22.20;99.90;;;;;;5079170;28;20277;-64
2023/08/14 07:57:25;;;;;;;7.45;2.75;;;22.30;99.90;;;;;;5077924;28;20200;-63
2023/08/14 07:59:54;;;;;;;4.13;2.25;;;22.40;99.90;;;;;;5087345;28;20232;-63
2023/08/14 08:02:22;;;;;;;8.48;3.08;;;22.50;99.90;;;;;;5059088;28;20211;-63
2023/08/14 08:04:50;;;;;;;5.93;2.95;;;22.80;99.90;;;;;;5086412;28;20265;-63
2023/08/14 08:07:18;;;;;;;4.40;2.63;;;22.90;99.90;;;;;;5090996;28;20223;-63
2023/08/14 08:09:52;;;;;;;5.95;2.92;;;22.90;99.90;;;;;;5075274;28;20200;-63
2023/08/14 08:12:21;;;;;;;7.60;2.83;;;22.90;99.90;;;;;;5087579;28;20212;-63
2023/08/14 08:14:48;;;;;;;4.30;2.60;;;22.90;99.90;;;;;;5077948;28;20652;-63
2023/08/14 08:17:18;;;;;;;6.40;2.78;;;22.90;99.90;;;;;;5079531;28;20299;-63
2023/08/14 08:19:46;;;;;;;7.55;2.70;;;22.90;99.90;;;;;;5085674;28;20212;-63
2023/08/14 08:22:14;;;;;;;6.28;2.90;;;22.90;99.90;;;;;;5073501;28;20225;-63
2023/08/14 08:24:42;;;;;;;6.03;2.78;;;23.00;99.90;;;;;;5083846;28;20213;-63
2023/08/14 08:27:11;;;;;;;3.50;2.58;;;23.20;99.90;;;;;;5080822;28;20767;-63
2023/08/14 08:29:39;;;;;;;3.47;2.83;;;23.30;99.90;;;;;;5076935;28;20287;-63
2023/08/14 08:32:08;;;;;;;7.80;2.60;;;23.30;99.90;;;;;;5071963;28;20243;-62
2023/08/14 08:34:37;;;;;;;3.03;2.72;;;23.40;99.90;;;;;;5086892;28;20216;-63
2023/08/14 08:37:06;;;;;;;3.75;2.60;;;23.40;99.90;;;;;;5083803;28;20279;-63
2023/08/14 08:39:33;;;;;;;6.47;2.55;;;23.40;99.90;;;;;;5081122;28;20228;-63
2023/08/14 08:42:01;;;;;;;6.28;2.85;;;23.40;99.90;;;;;;5091187;28;20343;-63
2023/08/14 08:44:31;;;;;;;9.52;2.67;;;23.40;99.90;;;;;;5078285;28;20231;-63
2023/08/14 08:47:04;;;;;;;6.82;2.42;;;23.40;99.90;;;;;;5085182;28;20220;-63
2023/08/14 08:49:32;;;;;;;3.97;2.85;;;23.40;99.90;;;;;;5087065;28;20232;-63
2023/08/14 08:52:01;;;;;;;3.65;2.58;;;23.40;99.90;;;;;;5077439;28;20651;-63
2023/08/14 08:54:29;;;;;;;7.30;2.75;;;23.40;99.90;;;;;;5089505;28;20299;-63
2023/08/14 08:56:57;;;;;;;4.25;2.80;;;23.40;99.90;;;;;;5082092;28;20199;-63
2023/08/14 08:59:26;;;;;;;10.32;3.00;;;23.50;99.90;;;;;;5081875;28;20243;-63
2023/08/14 09:01:54;;;;;;;5.03;3.05;;;23.50;99.90;;;;;;5090457;28;20203;-63
2023/08/14 09:04:25;;;;;;;4.22;2.40;;;23.60;99.90;;;;;;5061276;28;20223;-63
2023/08/14 09:06:53;;;;;;;5.45;2.65;;;23.70;99.90;;;;;;5068557;28;20216;-63
2023/08/14 09:09:22;;;;;;;2.88;2.28;;;23.80;99.90;;;;;;5081945;28;20204;-63
2023/08/14 09:11:50;;;;;;;7.03;2.53;;;23.80;99.90;;;;;;5089718;28;20235;-63
2023/08/14 09:14:18;;;;;;;5.40;3.15;;;23.80;99.90;;;;;;5076701;28;20219;-63
2023/08/14 09:16:46;;;;;;;7.18;2.65;;;23.80;99.90;;;;;;5086524;28;20633;-63
2023/08/14 09:19:20;;;;;;;8.50;2.90;;;23.80;99.90;;;;;;5085095;28;20203;-63
2023/08/14 09:21:48;;;;;;;5.47;2.67;;;23.80;99.90;;;;;;5078344;28;20254;-63
2023/08/14 09:24:16;;;;;;;4.13;2.95;;;23.80;99.90;;;;;;5089540;28;20690;-63
2023/08/14 09:26:45;;;;;;;3.28;2.92;;;23.80;99.90;;;;;;5079649;28;20296;-63
2023/08/14 09:29:13;;;;;;;6.50;3.10;;;23.80;99.90;;;;;;5082704;28;20205;-63
2023/08/14 09:31:43;;;;;;;6.65;2.83;;;23.80;99.90;;;;;;5087773;28;20628;-64
2023/08/14 09:34:16;;;;;;;6.38;2.88;;;24.00;99.90;;;;;;5076412;28;20239;-63
2023/08/14 09:36:44;;;;;;;4.20;2.90;;;24.10;99.90;;;;;;5085361;28;20193;-63
2023/08/14 09:39:12;;;;;;;6.65;2.50;;;24.20;99.90;;;;;;5077411;28;20334;-63
2023/08/14 09:41:40;;;;;;;3.40;2.67;;;24.40;99.90;;;;;;5087792;28;20196;-64
2023/08/14 09:44:10;;;;;;;6.72;3.10;;;24.50;99.90;;;;;;5076482;28;20256;-63
2023/08/14 09:46:37;;;;;;;5.65;2.90;;;24.70;99.90;;;;;;5086999;28;20235;-62
2023/08/14 09:49:06;;;;;;;5.35;2.85;;;24.70;99.90;;;;;;5074188;28;20587;-63
2023/08/14 09:51:34;;;;;;;3.15;2.22;;;24.80;99.90;;;;;;5075157;28;20232;-63
2023/08/14 09:54:03;;;;;;;6.18;3.08;;;24.90;99.90;;;;;;5072967;28;20236;-63
2023/08/14 09:56:31;;;;;;;4.65;2.70;;;24.90;99.90;;;;;;5083636;28;20257;-63
2023/08/14 09:58:59;;;;;;;3.22;2.33;;;25.10;99.90;;;;;;5084421;28;20196;-63
2023/08/14 10:01:28;;;;;;;2.70;2.50;;;25.20;99.90;;;;;;5085530;28;20251;-63
2023/08/14 10:03:56;;;;;;;4.38;2.92;;;25.30;99.90;;;;;;5076363;28;20269;-64
2023/08/14 10:06:25;;;;;;;3.17;2.85;;;25.40;99.90;;;;;;5092367;28;20635;-63
2023/08/14 10:08:55;;;;;;;3.35;2.55;;;25.50;99.90;;;;;;5084816;28;20640;-63
2023/08/14 10:11:25;;;;;;;3.78;2.15;;;25.60;99.90;;;;;;5083165;28;20282;-64
2023/08/14 10:13:55;;;;;;;3.30;2.65;;;25.80;99.90;;;;;;5075847;28;20668;-64
2023/08/14 10:16:24;;;;;;;5.75;2.50;;;25.90;99.90;;;;;;5059255;28;20197;-63
2023/08/14 10:18:55;;;;;;;2.78;2.20;;;26.10;99.90;;;;;;5085132;28;20197;-63
2023/08/14 10:21:24;;;;;;;3.10;2.17;;;26.30;99.90;;;;;;5084463;28;20203;-64
2023/08/14 10:23:52;;;;;;;2.67;2.47;;;26.60;99.90;;;;;;5076310;28;20254;-63
2023/08/14 10:26:20;;;;;;;4.10;2.40;;;27.00;99.90;;;;;;5088656;28;20258;-63
2023/08/14 10:28:48;;;;;;;7.32;2.60;;;27.20;99.90;;;;;;5079142;28;20257;-63
2023/08/14 10:31:16;;;;;;;3.72;2.80;;;27.30;99.90;;;;;;5081498;28;20205;-64
2023/08/14 10:33:44;;;;;;;2.58;2.38;;;27.30;99.90;;;;;;5086948;28;20196;-63
2023/08/14 10:36:20;;;;;;;5.88;2.70;;;27.40;99.90;;;;;;5075178;28;20796;-63
2023/08/14 10:38:49;;;;;;;3.40;2.92;;;27.60;99.90;;;;;;5085071;28;20204;-63
2023/08/14 10:41:32;;;;;;;3.90;2.65;;;27.70;99.90;;;;;;5085251;28;20296;-64
2023/08/14 10:44:04;;;;;;;3.45;2.80;;;27.80;99.90;;;;;;5075275;28;20232;-65
2023/08/14 10:46:32;;;;;;;5.50;3.03;;;27.70;99.90;;;;;;5087044;28;20201;-64
2023/08/14 10:49:00;;;;;;;4.40;2.70;;;27.60;99.90;;;;;;5080448;28;20574;-64
2023/08/14 10:51:31;;;;;;;2.97;2.75;;;27.40;99.90;;;;;;5079208;28;20204;-64
2023/08/14 10:54:03;;;;;;;3.92;2.92;;;27.30;99.90;;;;;;5087833;28;20203;-64
2023/08/14 10:56:41;;;;;;;5.00;2.92;;;27.20;99.90;;;;;;5075589;28;20699;-63
2023/08/14 10:59:20;;;;;;;6.05;3.25;;;27.20;99.90;;;;;;5081947;28;20200;-64
2023/08/14 11:01:52;;;;;;;8.15;3.13;;;27.40;99.90;;;;;;5087867;28;20235;-64
2023/08/14 11:04:20;;;;;;;4.15;2.78;;;27.60;99.90;;;;;;5075250;28;20222;-64
2023/08/14 11:07:08;;;;;;;6.47;3.03;;;27.90;99.90;;;;;;5091778;28;20659;-63
2023/08/14 11:09:36;;;;;;;5.40;2.53;;;28.20;99.90;;;;;;5077819;28;20197;-64
2023/08/14 11:12:06;;;;;;;4.65;2.67;;;28.60;99.90;;;;;;5088624;28;20242;-64
2023/08/14 11:14:35;;;;;;;2.97;2.72;;;28.80;99.90;;;;;;5076251;28;20226;-64
2023/08/14 11:17:03;;;;;;;3.03;2.50;;;29.10;99.90;;;;;;5082701;28;20291;-64
2023/08/14 11:19:33;;;;;;;2.90;2.50;;;29.20;99.90;;;;;;5084658;28;20223;-64
2023/08/14 11:22:01;;;;;;;3.28;2.55;;;29.20;99.90;;;;;;5075083;28;20636;-63
2023/08/14 11:24:32;;;;;;;5.43;2.63;;;29.00;99.90;;;;;;5086896;28;20216;-64
2023/08/14 11:27:00;;;;;;;2.42;2.20;;;28.90;99.90;;;;;;5079812;28;20200;-63
2023/08/14 11:29:28;;;;;;;2.88;2.63;;;28.70;99.90;;;;;;5078914;28;20256;-64
2023/08/14 11:31:59;;;;;;;3.67;2.42;;;28.40;99.90;;;;;;5088047;28;20551;-64
2023/08/14 11:34:27;;;;;;;3.90;2.83;;;28.20;99.90;;;;;;5075617;28;20220;-64
2023/08/14 11:36:57;;;;;;;4.45;2.60;;;28.20;99.90;;;;;;5083109;28;20196;-64
2023/08/14 11:39:36;;;;;;;4.30;2.70;;;28.20;99.90;;;;;;5084761;28;20283;-64
2023/08/14 11:42:05;;;;;;;5.57;2.60;;;28.20;99.90;;;;;;5073457;28;20943;-63
2023/08/14 11:44:34;;;;;;;7.47;2.78;;;28.30;99.90;;;;;;5075875;28;20224;-63
2023/08/14 11:47:04;;;;;;;2.88;2.67;;;28.40;99.90;;;;;;5082179;28;20646;-63
2023/08/14 11:49:32;;;;;;;3.33;2.60;;;28.40;99.90;;;;;;5071169;28;20272;-64
2023/08/14 11:52:02;;;;;;;3.80;2.42;;;28.40;99.90;;;;;;5071634;28;20208;-63
2023/08/14 11:54:31;;;;;;;3.60;2.40;;;28.20;99.90;;;;;;5086239;28;20266;-63
2023/08/14 11:57:03;;;;;;;5.22;2.50;;;28.20;99.90;;;;;;5076577;28;20209;-62
2023/08/14 11:59:31;;;;;;;3.95;2.63;;;28.20;99.90;;;;;;5071249;28;20190;-63
2023/08/14 12:01:59;;;;;;;2.53;2.33;;;28.20;99.90;;;;;;5071944;28;20189;-63
2023/08/14 12:04:27;;;;;;;6.82;2.90;;;28.50;99.90;;;;;;5090769;28;20228;-64
2023/08/14 12:06:55;;;;;;;4.47;2.30;;;28.70;99.90;;;;;;5071049;28;20370;-64
2023/08/14 12:09:26;;;;;;;6.65;2.60;;;29.10;99.90;;;;;;5081988;28;20228;-63
2023/08/14 12:11:54;;;;;;;5.00;2.70;;;29.50;99.90;;;;;;5091568;28;20220;-63
2023/08/14 12:14:23;;;;;;;10.32;2.75;;;30.10;99.90;;;;;;5061747;28;20251;-63
2023/08/14 12:16:51;;;;;;;5.05;2.78;;;30.20;99.90;;;;;;5087319;28;20224;-64
2023/08/14 12:19:20;;;;;;;4.32;2.67;;;30.00;99.90;;;;;;5074396;28;20204;-64
2023/08/14 12:21:56;;;;;;;10.00;2.67;;;29.50;99.90;;;;;;5090440;28;20204;-64
2023/08/14 12:24:24;;;;;;;5.80;2.97;;;29.10;99.90;;;;;;5062039;28;20247;-64
2023/08/14 12:26:52;;;;;;;4.03;2.40;;;28.70;99.90;;;;;;5087043;28;20362;-62
2023/08/14 12:29:21;;;;;;;2.72;2.40;;;28.50;99.90;;;;;;5086080;28;20329;-64
2023/08/14 12:31:50;;;;;;;3.05;2.05;;;28.80;99.90;;;;;;5079080;28;20206;-64
2023/08/14 12:34:21;;;;;;;4.20;1.92;;;29.70;99.90;;;;;;5091045;28;20247;-64
2023/08/14 12:36:49;;;;;;;2.72;2.08;;;30.60;99.90;;;;;;5081663;28;20202;-63
2023/08/14 12:39:17;;;;;;;8.05;2.10;;;31.10;99.90;;;;;;5083290;28;20224;-64
2023/08/14 12:41:44;;;;;;;3.75;2.03;;;31.30;99.90;;;;;;5089570;28;20253;-63
2023/08/14 12:44:12;;;;;;;4.45;2.50;;;31.00;99.90;;;;;;5091745;28;20774;-64
2023/08/14 12:46:40;;;;;;;2.55;2.10;;;30.60;99.90;;;;;;5080307;28;20241;-63
2023/08/14 12:49:10;;;;;;;4.00;2.15;;;30.10;99.90;;;;;;5084328;28;20224;-64
2023/08/14 12:51:40;;;;;;;4.40;2.30;;;29.90;99.90;;;;;;5088332;28;20306;-64
2023/08/14 12:54:08;;;;;;;3.40;2.30;;;29.80;99.90;;;;;;5077228;28;20758;-63